sensor_id;sensor_type;location;lat;lon;timestamp;P1;durP1;ratioP1;P2;durP2;ratioP2
43620;SDS011;29213;50.770;7.298;2024-02-28T00:02:00;45.55;;;27.95;;
43620;SDS011;29213;50.770;7.298;2024-02-28T00:04:26;46.45;;;28.17;;
43620;SDS011;29213;50.770;7.298;2024-02-28T00:06:51;45.85;;;27.73;;
43620;SDS011;29213;50.770;7.298;2024-02-28T00:09:17;45.83;;;26.73;;
43620;SDS011;29213;50.770;7.298;2024-02-28T00:11:43;43.05;;;26.38;;
43620;SDS011;29213;50.770;7.298;2024-02-28T00:14:10;44.50;;;26.40;;
43620;SDS011;29213;50.770;7.298;2024-02-28T00:16:36;48.50;;;28.75;;
43620;SDS011;29213;50.770;7.298;2024-02-28T00:19:01;46.10;;;27.88;;
43620;SDS011;29213;50.770;7.298;2024-02-28T00:21:27;45.67;;;28.73;;
43620;SDS011;29213;50.770;7.298;2024-02-28T00:23:52;47.30;;;27.90;;
43620;SDS011;29213;50.770;7.298;2024-02-28T00:26:18;50.28;;;30.08;;
43620;SDS011;29213;50.770;7.298;2024-02-28T00:28:44;44.78;;;27.75;;
43620;SDS011;29213;50.770;7.298;2024-02-28T00:31:09;50.38;;;28.83;;
43620;SDS011;29213;50.770;7.298;2024-02-28T00:33:35;45.60;;;26.58;;
43620;SDS011;29213;50.770;7.298;2024-02-28T00:36:00;47.08;;;28.80;;
43620;SDS011;29213;50.770;7.298;2024-02-28T00:38:25;47.00;;;27.85;;
43620;SDS011;29213;50.770;7.298;2024-02-28T00:40:52;51.08;;;30.35;;
43620;SDS011;29213;50.770;7.298;2024-02-28T00:43:17;51.20;;;30.95;;
43620;SDS011;29213;50.770;7.298;2024-02-28T00:45:43;51.88;;;31.20;;
43620;SDS011;29213;50.770;7.298;2024-02-28T00:48:09;50.25;;;30.23;;
43620;SDS011;29213;50.770;7.298;2024-02-28T00:50:35;52.00;;;30.13;;
43620;SDS011;29213;50.770;7.298;2024-02-28T00:53:00;51.40;;;30.45;;
43620;SDS011;29213;50.770;7.298;2024-02-28T00:55:25;48.83;;;28.70;;
43620;SDS011;29213;50.770;7.298;2024-02-28T00:57:51;50.50;;;30.02;;
43620;SDS011;29213;50.770;7.298;2024-02-28T01:00:17;53.38;;;31.95;;
43620;SDS011;29213;50.770;7.298;2024-02-28T01:02:43;55.90;;;31.20;;
43620;SDS011;29213;50.770;7.298;2024-02-28T01:05:08;57.75;;;31.40;;
43620;SDS011;29213;50.770;7.298;2024-02-28T01:07:34;56.95;;;32.42;;
43620;SDS011;29213;50.770;7.298;2024-02-28T01:09:59;63.90;;;33.92;;
43620;SDS011;29213;50.770;7.298;2024-02-28T01:12:25;55.47;;;31.90;;
43620;SDS011;29213;50.770;7.298;2024-02-28T01:14:51;52.75;;;30.38;;
43620;SDS011;29213;50.770;7.298;2024-02-28T01:17:16;55.05;;;31.58;;
43620;SDS011;29213;50.770;7.298;2024-02-28T01:19:41;50.13;;;28.95;;
43620;SDS011;29213;50.770;7.298;2024-02-28T01:22:07;52.10;;;29.55;;
43620;SDS011;29213;50.770;7.298;2024-02-28T01:24:34;51.47;;;30.13;;
43620;SDS011;29213;50.770;7.298;2024-02-28T01:26:59;51.50;;;30.70;;
43620;SDS011;29213;50.770;7.298;2024-02-28T01:29:25;50.38;;;30.00;;
43620;SDS011;29213;50.770;7.298;2024-02-28T01:31:50;51.80;;;29.13;;
43620;SDS011;29213;50.770;7.298;2024-02-28T01:34:16;53.97;;;30.40;;
43620;SDS011;29213;50.770;7.298;2024-02-28T01:36:42;55.47;;;29.70;;
43620;SDS011;29213;50.770;7.298;2024-02-28T01:39:07;56.28;;;31.00;;
43620;SDS011;29213;50.770;7.298;2024-02-28T01:41:33;59.13;;;31.58;;
43620;SDS011;29213;50.770;7.298;2024-02-28T01:43:59;54.45;;;30.58;;
43620;SDS011;29213;50.770;7.298;2024-02-28T01:46:28;56.22;;;30.27;;
43620;SDS011;29213;50.770;7.298;2024-02-28T01:48:54;54.33;;;31.33;;
43620;SDS011;29213;50.770;7.298;2024-02-28T01:51:21;50.58;;;28.90;;
43620;SDS011;29213;50.770;7.298;2024-02-28T01:53:49;55.45;;;31.05;;
43620;SDS011;29213;50.770;7.298;2024-02-28T01:56:16;50.92;;;29.23;;
43620;SDS011;29213;50.770;7.298;2024-02-28T01:58:46;55.08;;;31.20;;
43620;SDS011;29213;50.770;7.298;2024-02-28T02:01:16;56.15;;;30.38;;
43620;SDS011;29213;50.770;7.298;2024-02-28T02:03:42;51.65;;;29.70;;
43620;SDS011;29213;50.770;7.298;2024-02-28T02:06:08;52.30;;;30.42;;
43620;SDS011;29213;50.770;7.298;2024-02-28T02:08:36;56.90;;;31.80;;
43620;SDS011;29213;50.770;7.298;2024-02-28T02:11:01;49.97;;;29.25;;
43620;SDS011;29213;50.770;7.298;2024-02-28T02:13:27;51.22;;;30.08;;
43620;SDS011;29213;50.770;7.298;2024-02-28T02:15:52;55.38;;;31.42;;
43620;SDS011;29213;50.770;7.298;2024-02-28T02:18:18;55.28;;;30.90;;
43620;SDS011;29213;50.770;7.298;2024-02-28T02:20:44;53.10;;;31.70;;
43620;SDS011;29213;50.770;7.298;2024-02-28T02:23:14;48.78;;;29.70;;
43620;SDS011;29213;50.770;7.298;2024-02-28T02:25:46;51.22;;;29.13;;
43620;SDS011;29213;50.770;7.298;2024-02-28T02:28:13;49.80;;;28.85;;
43620;SDS011;29213;50.770;7.298;2024-02-28T02:30:39;59.35;;;32.75;;
43620;SDS011;29213;50.770;7.298;2024-02-28T02:33:06;49.67;;;29.80;;
43620;SDS011;29213;50.770;7.298;2024-02-28T02:35:35;52.05;;;30.25;;
43620;SDS011;29213;50.770;7.298;2024-02-28T02:38:01;59.80;;;32.90;;
43620;SDS011;29213;50.770;7.298;2024-02-28T02:40:26;50.78;;;29.83;;
43620;SDS011;29213;50.770;7.298;2024-02-28T02:42:51;49.50;;;28.77;;
43620;SDS011;29213;50.770;7.298;2024-02-28T02:45:17;48.95;;;29.10;;
43620;SDS011;29213;50.770;7.298;2024-02-28T02:47:42;52.92;;;30.77;;
43620;SDS011;29213;50.770;7.298;2024-02-28T02:50:09;52.70;;;30.40;;
43620;SDS011;29213;50.770;7.298;2024-02-28T02:52:34;55.90;;;32.63;;
43620;SDS011;29213;50.770;7.298;2024-02-28T02:55:00;56.95;;;32.22;;
43620;SDS011;29213;50.770;7.298;2024-02-28T02:57:25;58.10;;;34.13;;
43620;SDS011;29213;50.770;7.298;2024-02-28T02:59:51;53.28;;;32.10;;
43620;SDS011;29213;50.770;7.298;2024-02-28T03:02:16;55.03;;;32.78;;
43620;SDS011;29213;50.770;7.298;2024-02-28T03:04:42;51.67;;;31.48;;
43620;SDS011;29213;50.770;7.298;2024-02-28T03:07:07;55.63;;;31.98;;
43620;SDS011;29213;50.770;7.298;2024-02-28T03:09:33;58.97;;;33.95;;
43620;SDS011;29213;50.770;7.298;2024-02-28T03:11:59;50.85;;;31.40;;
43620;SDS011;29213;50.770;7.298;2024-02-28T03:14:25;54.22;;;31.00;;
43620;SDS011;29213;50.770;7.298;2024-02-28T03:16:52;56.83;;;33.10;;
43620;SDS011;29213;50.770;7.298;2024-02-28T03:19:19;55.90;;;31.92;;
43620;SDS011;29213;50.770;7.298;2024-02-28T03:21:44;56.13;;;32.85;;
43620;SDS011;29213;50.770;7.298;2024-02-28T03:24:10;53.88;;;32.22;;
43620;SDS011;29213;50.770;7.298;2024-02-28T03:26:35;55.38;;;31.98;;
43620;SDS011;29213;50.770;7.298;2024-02-28T03:29:01;55.92;;;33.53;;
43620;SDS011;29213;50.770;7.298;2024-02-28T03:31:27;56.35;;;33.58;;
43620;SDS011;29213;50.770;7.298;2024-02-28T03:33:52;56.63;;;34.38;;
43620;SDS011;29213;50.770;7.298;2024-02-28T03:36:18;53.35;;;32.95;;
43620;SDS011;29213;50.770;7.298;2024-02-28T03:38:43;60.15;;;36.13;;
43620;SDS011;29213;50.770;7.298;2024-02-28T03:41:09;56.22;;;34.10;;
43620;SDS011;29213;50.770;7.298;2024-02-28T03:43:34;56.50;;;34.17;;
43620;SDS011;29213;50.770;7.298;2024-02-28T03:46:00;53.08;;;34.20;;
43620;SDS011;29213;50.770;7.298;2024-02-28T03:48:26;59.15;;;35.15;;
43620;SDS011;29213;50.770;7.298;2024-02-28T03:50:51;55.22;;;34.45;;
43620;SDS011;29213;50.770;7.298;2024-02-28T03:53:16;52.95;;;34.30;;
43620;SDS011;29213;50.770;7.298;2024-02-28T03:55:42;53.13;;;33.42;;
43620;SDS011;29213;50.770;7.298;2024-02-28T03:58:09;51.63;;;33.35;;
43620;SDS011;29213;50.770;7.298;2024-02-28T04:00:36;58.28;;;35.65;;
43620;SDS011;29213;50.770;7.298;2024-02-28T04:03:02;56.40;;;36.50;;
43620;SDS011;29213;50.770;7.298;2024-02-28T04:05:28;56.25;;;35.90;;
43620;SDS011;29213;50.770;7.298;2024-02-28T04:07:53;54.03;;;34.80;;
43620;SDS011;29213;50.770;7.298;2024-02-28T04:10:19;52.08;;;33.10;;
43620;SDS011;29213;50.770;7.298;2024-02-28T04:12:44;50.85;;;33.22;;
43620;SDS011;29213;50.770;7.298;2024-02-28T04:15:11;55.67;;;34.58;;
43620;SDS011;29213;50.770;7.298;2024-02-28T04:17:40;53.13;;;33.70;;
43620;SDS011;29213;50.770;7.298;2024-02-28T04:20:15;57.95;;;35.50;;
43620;SDS011;29213;50.770;7.298;2024-02-28T04:22:40;49.45;;;31.25;;
43620;SDS011;29213;50.770;7.298;2024-02-28T04:25:07;50.13;;;32.90;;
43620;SDS011;29213;50.770;7.298;2024-02-28T04:27:34;53.47;;;33.28;;
43620;SDS011;29213;50.770;7.298;2024-02-28T04:30:00;55.05;;;34.08;;
43620;SDS011;29213;50.770;7.298;2024-02-28T04:32:25;61.58;;;37.28;;
43620;SDS011;29213;50.770;7.298;2024-02-28T04:34:51;61.10;;;37.30;;
43620;SDS011;29213;50.770;7.298;2024-02-28T04:37:16;56.95;;;35.83;;
43620;SDS011;29213;50.770;7.298;2024-02-28T04:39:42;52.90;;;33.55;;
43620;SDS011;29213;50.770;7.298;2024-02-28T04:42:08;54.78;;;34.13;;
43620;SDS011;29213;50.770;7.298;2024-02-28T04:44:34;58.10;;;36.70;;
43620;SDS011;29213;50.770;7.298;2024-02-28T04:46:59;60.58;;;38.03;;
43620;SDS011;29213;50.770;7.298;2024-02-28T04:49:25;54.38;;;35.80;;
43620;SDS011;29213;50.770;7.298;2024-02-28T04:51:51;53.83;;;33.67;;
43620;SDS011;29213;50.770;7.298;2024-02-28T04:54:16;58.13;;;35.72;;
43620;SDS011;29213;50.770;7.298;2024-02-28T04:56:42;57.00;;;35.15;;
43620;SDS011;29213;50.770;7.298;2024-02-28T04:59:08;55.35;;;35.05;;
43620;SDS011;29213;50.770;7.298;2024-02-28T05:01:36;56.97;;;35.95;;
43620;SDS011;29213;50.770;7.298;2024-02-28T05:04:05;55.42;;;33.55;;
43620;SDS011;29213;50.770;7.298;2024-02-28T05:06:31;55.97;;;35.28;;
43620;SDS011;29213;50.770;7.298;2024-02-28T05:08:57;52.15;;;33.33;;
43620;SDS011;29213;50.770;7.298;2024-02-28T05:11:23;53.25;;;33.72;;
43620;SDS011;29213;50.770;7.298;2024-02-28T05:13:48;60.95;;;36.97;;
43620;SDS011;29213;50.770;7.298;2024-02-28T05:16:14;59.60;;;36.22;;
43620;SDS011;29213;50.770;7.298;2024-02-28T05:18:40;52.97;;;35.22;;
43620;SDS011;29213;50.770;7.298;2024-02-28T05:21:05;56.20;;;35.60;;
43620;SDS011;29213;50.770;7.298;2024-02-28T05:23:31;58.05;;;36.30;;
43620;SDS011;29213;50.770;7.298;2024-02-28T05:25:57;57.08;;;35.70;;
43620;SDS011;29213;50.770;7.298;2024-02-28T05:28:22;51.92;;;33.55;;
43620;SDS011;29213;50.770;7.298;2024-02-28T05:30:48;54.83;;;35.00;;
43620;SDS011;29213;50.770;7.298;2024-02-28T05:33:14;56.38;;;35.08;;
43620;SDS011;29213;50.770;7.298;2024-02-28T05:35:40;56.13;;;35.67;;
43620;SDS011;29213;50.770;7.298;2024-02-28T05:38:06;56.38;;;35.65;;
43620;SDS011;29213;50.770;7.298;2024-02-28T05:40:31;59.15;;;37.53;;
43620;SDS011;29213;50.770;7.298;2024-02-28T05:42:57;59.92;;;38.80;;
43620;SDS011;29213;50.770;7.298;2024-02-28T05:45:22;56.40;;;36.67;;
43620;SDS011;29213;50.770;7.298;2024-02-28T05:47:48;53.65;;;34.38;;
43620;SDS011;29213;50.770;7.298;2024-02-28T05:50:13;54.40;;;33.65;;
43620;SDS011;29213;50.770;7.298;2024-02-28T05:52:41;57.47;;;36.58;;
43620;SDS011;29213;50.770;7.298;2024-02-28T05:55:08;58.33;;;37.40;;
43620;SDS011;29213;50.770;7.298;2024-02-28T05:57:33;63.25;;;38.20;;
43620;SDS011;29213;50.770;7.298;2024-02-28T05:59:59;54.30;;;34.20;;
43620;SDS011;29213;50.770;7.298;2024-02-28T06:02:24;49.58;;;31.65;;
43620;SDS011;29213;50.770;7.298;2024-02-28T06:04:50;49.80;;;32.53;;
43620;SDS011;29213;50.770;7.298;2024-02-28T06:07:15;50.88;;;32.70;;
43620;SDS011;29213;50.770;7.298;2024-02-28T06:09:41;51.65;;;33.90;;
43620;SDS011;29213;50.770;7.298;2024-02-28T06:12:06;52.72;;;34.88;;
43620;SDS011;29213;50.770;7.298;2024-02-28T06:14:32;52.42;;;33.35;;
43620;SDS011;29213;50.770;7.298;2024-02-28T06:16:57;56.85;;;35.75;;
43620;SDS011;29213;50.770;7.298;2024-02-28T06:19:23;54.35;;;35.40;;
43620;SDS011;29213;50.770;7.298;2024-02-28T06:21:48;48.95;;;31.45;;
43620;SDS011;29213;50.770;7.298;2024-02-28T06:24:13;52.28;;;33.40;;
43620;SDS011;29213;50.770;7.298;2024-02-28T06:26:39;55.78;;;34.92;;
43620;SDS011;29213;50.770;7.298;2024-02-28T06:29:06;50.13;;;32.25;;
43620;SDS011;29213;50.770;7.298;2024-02-28T06:31:32;51.72;;;32.78;;
43620;SDS011;29213;50.770;7.298;2024-02-28T06:33:58;48.40;;;31.73;;
43620;SDS011;29213;50.770;7.298;2024-02-28T06:36:23;49.80;;;32.17;;
43620;SDS011;29213;50.770;7.298;2024-02-28T06:38:49;55.35;;;34.30;;
43620;SDS011;29213;50.770;7.298;2024-02-28T06:41:14;49.45;;;32.33;;
43620;SDS011;29213;50.770;7.298;2024-02-28T06:43:40;51.38;;;31.52;;
43620;SDS011;29213;50.770;7.298;2024-02-28T06:46:05;44.35;;;29.67;;
43620;SDS011;29213;50.770;7.298;2024-02-28T06:48:31;52.75;;;33.38;;
43620;SDS011;29213;50.770;7.298;2024-02-28T06:50:56;57.83;;;34.90;;
43620;SDS011;29213;50.770;7.298;2024-02-28T06:53:23;57.28;;;34.45;;
43620;SDS011;29213;50.770;7.298;2024-02-28T06:55:49;59.28;;;36.38;;
43620;SDS011;29213;50.770;7.298;2024-02-28T06:58:14;57.60;;;35.90;;
43620;SDS011;29213;50.770;7.298;2024-02-28T07:00:40;59.40;;;36.33;;
43620;SDS011;29213;50.770;7.298;2024-02-28T07:03:06;52.70;;;32.85;;
43620;SDS011;29213;50.770;7.298;2024-02-28T07:05:32;61.75;;;36.25;;
43620;SDS011;29213;50.770;7.298;2024-02-28T07:07:58;65.20;;;38.40;;
43620;SDS011;29213;50.770;7.298;2024-02-28T07:10:24;59.47;;;36.90;;
43620;SDS011;29213;50.770;7.298;2024-02-28T07:12:50;60.47;;;36.35;;
43620;SDS011;29213;50.770;7.298;2024-02-28T07:15:15;54.25;;;34.20;;
43620;SDS011;29213;50.770;7.298;2024-02-28T07:17:44;60.22;;;37.03;;
43620;SDS011;29213;50.770;7.298;2024-02-28T07:20:10;61.15;;;35.05;;
43620;SDS011;29213;50.770;7.298;2024-02-28T07:22:36;64.13;;;38.88;;
43620;SDS011;29213;50.770;7.298;2024-02-28T07:25:02;55.08;;;34.05;;
43620;SDS011;29213;50.770;7.298;2024-02-28T07:27:27;61.33;;;36.83;;
43620;SDS011;29213;50.770;7.298;2024-02-28T07:29:53;56.15;;;34.70;;
43620;SDS011;29213;50.770;7.298;2024-02-28T07:32:18;56.50;;;35.33;;
43620;SDS011;29213;50.770;7.298;2024-02-28T07:34:44;56.28;;;34.10;;
43620;SDS011;29213;50.770;7.298;2024-02-28T07:37:09;60.35;;;36.78;;
43620;SDS011;29213;50.770;7.298;2024-02-28T07:39:35;63.17;;;36.75;;
43620;SDS011;29213;50.770;7.298;2024-02-28T07:42:00;58.78;;;36.83;;
43620;SDS011;29213;50.770;7.298;2024-02-28T07:44:26;54.42;;;34.70;;
43620;SDS011;29213;50.770;7.298;2024-02-28T07:46:51;58.05;;;36.28;;
43620;SDS011;29213;50.770;7.298;2024-02-28T07:49:17;56.22;;;35.08;;
43620;SDS011;29213;50.770;7.298;2024-02-28T07:51:42;56.00;;;34.45;;
43620;SDS011;29213;50.770;7.298;2024-02-28T07:54:08;55.88;;;35.30;;
43620;SDS011;29213;50.770;7.298;2024-02-28T07:56:33;55.88;;;34.40;;
43620;SDS011;29213;50.770;7.298;2024-02-28T07:58:58;52.55;;;32.47;;
43620;SDS011;29213;50.770;7.298;2024-02-28T08:01:24;56.10;;;35.08;;
43620;SDS011;29213;50.770;7.298;2024-02-28T08:03:49;49.47;;;31.92;;
43620;SDS011;29213;50.770;7.298;2024-02-28T08:06:15;52.80;;;32.45;;
43620;SDS011;29213;50.770;7.298;2024-02-28T08:08:43;48.97;;;31.05;;
43620;SDS011;29213;50.770;7.298;2024-02-28T08:11:10;50.45;;;31.77;;
43620;SDS011;29213;50.770;7.298;2024-02-28T08:13:45;48.08;;;31.33;;
43620;SDS011;29213;50.770;7.298;2024-02-28T08:16:10;50.33;;;31.48;;
43620;SDS011;29213;50.770;7.298;2024-02-28T08:18:36;52.25;;;32.80;;
43620;SDS011;29213;50.770;7.298;2024-02-28T08:21:01;50.17;;;32.67;;
43620;SDS011;29213;50.770;7.298;2024-02-28T08:23:28;45.03;;;29.73;;
43620;SDS011;29213;50.770;7.298;2024-02-28T08:25:54;44.78;;;29.60;;
43620;SDS011;29213;50.770;7.298;2024-02-28T08:28:20;43.53;;;28.75;;
43620;SDS011;29213;50.770;7.298;2024-02-28T08:30:45;46.83;;;29.75;;
43620;SDS011;29213;50.770;7.298;2024-02-28T08:33:11;45.63;;;30.23;;
43620;SDS011;29213;50.770;7.298;2024-02-28T08:35:36;44.97;;;29.58;;
43620;SDS011;29213;50.770;7.298;2024-02-28T08:38:02;46.85;;;29.90;;
43620;SDS011;29213;50.770;7.298;2024-02-28T08:40:29;44.50;;;30.02;;
43620;SDS011;29213;50.770;7.298;2024-02-28T08:42:55;48.13;;;31.15;;
43620;SDS011;29213;50.770;7.298;2024-02-28T08:45:22;46.33;;;29.75;;
43620;SDS011;29213;50.770;7.298;2024-02-28T08:47:48;46.00;;;30.83;;
43620;SDS011;29213;50.770;7.298;2024-02-28T08:50:13;47.05;;;30.40;;
43620;SDS011;29213;50.770;7.298;2024-02-28T08:52:38;45.90;;;30.25;;
43620;SDS011;29213;50.770;7.298;2024-02-28T08:55:04;42.47;;;28.48;;
43620;SDS011;29213;50.770;7.298;2024-02-28T08:57:30;48.15;;;30.83;;
43620;SDS011;29213;50.770;7.298;2024-02-28T08:59:55;44.65;;;29.98;;
43620;SDS011;29213;50.770;7.298;2024-02-28T09:02:21;46.25;;;30.73;;
43620;SDS011;29213;50.770;7.298;2024-02-28T09:04:47;45.88;;;30.70;;
43620;SDS011;29213;50.770;7.298;2024-02-28T09:07:17;43.65;;;29.02;;
43620;SDS011;29213;50.770;7.298;2024-02-28T09:09:45;42.35;;;27.90;;
43620;SDS011;29213;50.770;7.298;2024-02-28T09:12:11;43.03;;;28.48;;
43620;SDS011;29213;50.770;7.298;2024-02-28T09:14:37;47.50;;;31.20;;
43620;SDS011;29213;50.770;7.298;2024-02-28T09:17:03;43.03;;;28.52;;
43620;SDS011;29213;50.770;7.298;2024-02-28T09:19:30;50.70;;;32.38;;
43620;SDS011;29213;50.770;7.298;2024-02-28T09:21:59;50.17;;;31.48;;
43620;SDS011;29213;50.770;7.298;2024-02-28T09:24:26;50.28;;;32.75;;
43620;SDS011;29213;50.770;7.298;2024-02-28T09:26:53;49.50;;;31.98;;
43620;SDS011;29213;50.770;7.298;2024-02-28T09:29:19;50.30;;;32.45;;
43620;SDS011;29213;50.770;7.298;2024-02-28T09:31:44;47.15;;;31.58;;
43620;SDS011;29213;50.770;7.298;2024-02-28T09:34:11;45.92;;;29.55;;
43620;SDS011;29213;50.770;7.298;2024-02-28T09:36:40;50.25;;;31.05;;
43620;SDS011;29213;50.770;7.298;2024-02-28T09:39:07;44.30;;;29.10;;
43620;SDS011;29213;50.770;7.298;2024-02-28T09:41:35;37.42;;;25.45;;
43620;SDS011;29213;50.770;7.298;2024-02-28T09:44:02;41.50;;;28.25;;
43620;SDS011;29213;50.770;7.298;2024-02-28T09:46:28;44.70;;;29.67;;
43620;SDS011;29213;50.770;7.298;2024-02-28T09:48:55;42.08;;;27.73;;
43620;SDS011;29213;50.770;7.298;2024-02-28T09:51:24;43.53;;;29.15;;
43620;SDS011;29213;50.770;7.298;2024-02-28T09:53:52;43.65;;;29.17;;
43620;SDS011;29213;50.770;7.298;2024-02-28T09:56:18;42.88;;;29.20;;
43620;SDS011;29213;50.770;7.298;2024-02-28T09:58:49;44.47;;;30.60;;
43620;SDS011;29213;50.770;7.298;2024-02-28T10:01:15;49.60;;;31.48;;
43620;SDS011;29213;50.770;7.298;2024-02-28T10:03:42;46.63;;;29.73;;
43620;SDS011;29213;50.770;7.298;2024-02-28T10:06:10;39.83;;;27.30;;
43620;SDS011;29213;50.770;7.298;2024-02-28T10:08:35;38.42;;;26.25;;
43620;SDS011;29213;50.770;7.298;2024-02-28T10:11:02;45.30;;;29.70;;
43620;SDS011;29213;50.770;7.298;2024-02-28T10:13:29;46.50;;;30.45;;
43620;SDS011;29213;50.770;7.298;2024-02-28T10:15:54;46.80;;;30.48;;
43620;SDS011;29213;50.770;7.298;2024-02-28T10:18:20;44.50;;;30.50;;
43620;SDS011;29213;50.770;7.298;2024-02-28T10:20:45;48.55;;;32.33;;
43620;SDS011;29213;50.770;7.298;2024-02-28T10:23:11;47.40;;;31.85;;
43620;SDS011;29213;50.770;7.298;2024-02-28T10:25:45;48.00;;;30.58;;
43620;SDS011;29213;50.770;7.298;2024-02-28T10:28:12;46.53;;;30.90;;
43620;SDS011;29213;50.770;7.298;2024-02-28T10:30:42;48.42;;;30.00;;
43620;SDS011;29213;50.770;7.298;2024-02-28T10:33:12;50.17;;;32.55;;
43620;SDS011;29213;50.770;7.298;2024-02-28T10:35:43;42.90;;;28.65;;
43620;SDS011;29213;50.770;7.298;2024-02-28T10:38:10;43.80;;;28.92;;
43620;SDS011;29213;50.770;7.298;2024-02-28T10:40:37;49.80;;;32.15;;
43620;SDS011;29213;50.770;7.298;2024-02-28T10:43:03;49.42;;;32.70;;
43620;SDS011;29213;50.770;7.298;2024-02-28T10:45:33;45.22;;;31.13;;
43620;SDS011;29213;50.770;7.298;2024-02-28T10:48:02;47.03;;;31.15;;
43620;SDS011;29213;50.770;7.298;2024-02-28T10:50:28;45.63;;;31.40;;
43620;SDS011;29213;50.770;7.298;2024-02-28T10:52:54;46.40;;;31.10;;
43620;SDS011;29213;50.770;7.298;2024-02-28T10:55:25;44.20;;;29.92;;
43620;SDS011;29213;50.770;7.298;2024-02-28T10:57:58;45.65;;;31.75;;
43620;SDS011;29213;50.770;7.298;2024-02-28T11:00:28;45.22;;;30.38;;
43620;SDS011;29213;50.770;7.298;2024-02-28T11:02:54;45.05;;;30.42;;
43620;SDS011;29213;50.770;7.298;2024-02-28T11:05:20;44.83;;;30.08;;
43620;SDS011;29213;50.770;7.298;2024-02-28T11:07:46;44.22;;;30.80;;
43620;SDS011;29213;50.770;7.298;2024-02-28T11:10:12;45.25;;;30.50;;
43620;SDS011;29213;50.770;7.298;2024-02-28T11:12:38;43.53;;;29.42;;
43620;SDS011;29213;50.770;7.298;2024-02-28T11:15:04;43.72;;;30.70;;
43620;SDS011;29213;50.770;7.298;2024-02-28T11:17:34;40.97;;;28.80;;
43620;SDS011;29213;50.770;7.298;2024-02-28T11:20:00;42.85;;;29.20;;
43620;SDS011;29213;50.770;7.298;2024-02-28T11:22:36;40.67;;;28.77;;
43620;SDS011;29213;50.770;7.298;2024-02-28T11:25:01;40.05;;;28.33;;
43620;SDS011;29213;50.770;7.298;2024-02-28T11:27:27;46.85;;;31.58;;
43620;SDS011;29213;50.770;7.298;2024-02-28T11:29:52;49.95;;;33.00;;
43620;SDS011;29213;50.770;7.298;2024-02-28T11:32:18;50.63;;;32.80;;
43620;SDS011;29213;50.770;7.298;2024-02-28T11:34:43;47.83;;;31.45;;
43620;SDS011;29213;50.770;7.298;2024-02-28T11:37:10;48.08;;;32.00;;
43620;SDS011;29213;50.770;7.298;2024-02-28T11:39:36;50.60;;;32.42;;
43620;SDS011;29213;50.770;7.298;2024-02-28T11:42:08;47.33;;;31.92;;
43620;SDS011;29213;50.770;7.298;2024-02-28T11:44:34;48.45;;;32.92;;
43620;SDS011;29213;50.770;7.298;2024-02-28T11:47:00;49.10;;;33.00;;
43620;SDS011;29213;50.770;7.298;2024-02-28T11:49:26;47.72;;;32.50;;
43620;SDS011;29213;50.770;7.298;2024-02-28T11:51:51;47.92;;;32.60;;
43620;SDS011;29213;50.770;7.298;2024-02-28T11:54:17;44.40;;;30.65;;
43620;SDS011;29213;50.770;7.298;2024-02-28T11:56:42;50.22;;;32.83;;
43620;SDS011;29213;50.770;7.298;2024-02-28T11:59:08;45.20;;;30.52;;
43620;SDS011;29213;50.770;7.298;2024-02-28T12:01:36;47.83;;;32.83;;
43620;SDS011;29213;50.770;7.298;2024-02-28T12:04:07;48.63;;;32.67;;
43620;SDS011;29213;50.770;7.298;2024-02-28T12:06:36;46.85;;;31.83;;
43620;SDS011;29213;50.770;7.298;2024-02-28T12:09:03;44.92;;;30.83;;
43620;SDS011;29213;50.770;7.298;2024-02-28T12:11:32;45.53;;;30.63;;
43620;SDS011;29213;50.770;7.298;2024-02-28T12:13:57;42.20;;;28.83;;
43620;SDS011;29213;50.770;7.298;2024-02-28T12:16:25;46.08;;;30.75;;
43620;SDS011;29213;50.770;7.298;2024-02-28T12:18:53;41.75;;;27.77;;
43620;SDS011;29213;50.770;7.298;2024-02-28T12:21:19;39.83;;;26.58;;
43620;SDS011;29213;50.770;7.298;2024-02-28T12:23:45;43.42;;;29.23;;
43620;SDS011;29213;50.770;7.298;2024-02-28T12:26:11;43.83;;;29.65;;
43620;SDS011;29213;50.770;7.298;2024-02-28T12:28:37;42.83;;;28.70;;
43620;SDS011;29213;50.770;7.298;2024-02-28T12:31:02;42.45;;;29.45;;
43620;SDS011;29213;50.770;7.298;2024-02-28T12:33:30;47.72;;;29.15;;
43620;SDS011;29213;50.770;7.298;2024-02-28T12:35:55;43.75;;;29.55;;
43620;SDS011;29213;50.770;7.298;2024-02-28T12:38:21;41.70;;;28.05;;
43620;SDS011;29213;50.770;7.298;2024-02-28T12:40:47;39.95;;;27.50;;
43620;SDS011;29213;50.770;7.298;2024-02-28T12:43:13;42.38;;;28.48;;
43620;SDS011;29213;50.770;7.298;2024-02-28T12:45:39;41.83;;;28.45;;
43620;SDS011;29213;50.770;7.298;2024-02-28T12:48:04;38.63;;;26.27;;
43620;SDS011;29213;50.770;7.298;2024-02-28T12:50:31;37.60;;;25.52;;
43620;SDS011;29213;50.770;7.298;2024-02-28T12:52:58;38.78;;;27.63;;
43620;SDS011;29213;50.770;7.298;2024-02-28T12:55:25;39.47;;;26.83;;
43620;SDS011;29213;50.770;7.298;2024-02-28T12:57:50;37.20;;;25.50;;
43620;SDS011;29213;50.770;7.298;2024-02-28T13:00:16;38.50;;;26.15;;
43620;SDS011;29213;50.770;7.298;2024-02-28T13:02:42;38.75;;;25.58;;
43620;SDS011;29213;50.770;7.298;2024-02-28T13:05:09;37.88;;;25.77;;
43620;SDS011;29213;50.770;7.298;2024-02-28T13:07:34;37.33;;;26.05;;
43620;SDS011;29213;50.770;7.298;2024-02-28T13:10:01;34.88;;;24.73;;
43620;SDS011;29213;50.770;7.298;2024-02-28T13:12:30;36.25;;;25.77;;
43620;SDS011;29213;50.770;7.298;2024-02-28T13:14:57;33.88;;;24.42;;
43620;SDS011;29213;50.770;7.298;2024-02-28T13:17:23;30.55;;;20.65;;
43620;SDS011;29213;50.770;7.298;2024-02-28T13:19:48;38.10;;;26.27;;
43620;SDS011;29213;50.770;7.298;2024-02-28T13:22:14;34.92;;;24.38;;
43620;SDS011;29213;50.770;7.298;2024-02-28T13:24:39;30.20;;;21.20;;
43620;SDS011;29213;50.770;7.298;2024-02-28T13:27:04;32.67;;;23.02;;
43620;SDS011;29213;50.770;7.298;2024-02-28T13:29:30;35.15;;;23.60;;
43620;SDS011;29213;50.770;7.298;2024-02-28T13:31:57;32.25;;;23.58;;
43620;SDS011;29213;50.770;7.298;2024-02-28T13:34:23;31.30;;;23.58;;
43620;SDS011;29213;50.770;7.298;2024-02-28T13:36:49;32.75;;;23.15;;
43620;SDS011;29213;50.770;7.298;2024-02-28T13:39:15;29.35;;;21.60;;
43620;SDS011;29213;50.770;7.298;2024-02-28T13:41:41;31.02;;;21.77;;
43620;SDS011;29213;50.770;7.298;2024-02-28T13:44:07;32.28;;;23.27;;
43620;SDS011;29213;50.770;7.298;2024-02-28T13:46:34;32.10;;;22.92;;
43620;SDS011;29213;50.770;7.298;2024-02-28T13:49:00;34.88;;;23.05;;
43620;SDS011;29213;50.770;7.298;2024-02-28T13:51:26;31.60;;;23.30;;
43620;SDS011;29213;50.770;7.298;2024-02-28T13:53:51;34.15;;;23.58;;
43620;SDS011;29213;50.770;7.298;2024-02-28T13:56:20;31.58;;;22.73;;
43620;SDS011;29213;50.770;7.298;2024-02-28T13:58:45;29.60;;;21.67;;
43620;SDS011;29213;50.770;7.298;2024-02-28T14:01:11;32.85;;;23.38;;
43620;SDS011;29213;50.770;7.298;2024-02-28T14:03:37;30.85;;;21.45;;
43620;SDS011;29213;50.770;7.298;2024-02-28T14:06:03;31.23;;;22.17;;
43620;SDS011;29213;50.770;7.298;2024-02-28T14:08:29;32.38;;;22.38;;
43620;SDS011;29213;50.770;7.298;2024-02-28T14:10:55;33.00;;;24.00;;
43620;SDS011;29213;50.770;7.298;2024-02-28T14:13:21;28.73;;;20.55;;
43620;SDS011;29213;50.770;7.298;2024-02-28T14:15:46;30.88;;;21.88;;